Time;durP1;ratioP1;P1;durP2;ratioP2;P2;SDS_P1;SDS_P2;PMS_P1;PMS_P2;Temp;Humidity;BMP_temperature;BMP_pressure;BME280_temperature;BME280_humidity;BME280_pressure;Samples;Min_cycle;Max_cycle;Signal;HPM_P1;HPM_P2
2022/05/10 00:00:42;;;;;;;14.02;9.90;;;13.60;99.90;;;;;;5030236;28;20044;-71
2022/05/10 00:03:46;;;;;;;16.75;10.50;;;13.60;99.90;;;;;;5030109;28;20044;-71
2022/05/10 00:06:51;;;;;;;17.02;10.95;;;13.60;99.90;;;;;;5030190;28;20500;-71
2022/05/10 00:09:55;;;;;;;16.98;10.15;;;13.50;99.90;;;;;;5030548;28;20052;-70
2022/05/10 00:12:59;;;;;;;15.20;10.45;;;13.50;99.90;;;;;;5030457;28;20045;-70
2022/05/10 00:16:12;;;;;;;14.65;9.77;;;13.50;99.90;;;;;;5030356;28;20052;-70
2022/05/10 00:19:16;;;;;;;19.65;9.10;;;13.50;99.90;;;;;;5029476;28;20133;-70
2022/05/10 00:22:21;;;;;;;15.45;9.77;;;13.60;99.90;;;;;;5017860;28;20044;-70
2022/05/10 00:25:28;;;;;;;16.63;10.05;;;13.80;99.90;;;;;;5029992;28;20045;-70
2022/05/10 00:28:32;;;;;;;21.02;9.93;;;13.70;99.90;;;;;;5030066;28;20036;-71
2022/05/10 00:31:38;;;;;;;17.42;9.95;;;13.70;99.90;;;;;;5029924;28;20064;-70
2022/05/10 00:34:43;;;;;;;16.83;8.68;;;13.70;99.90;;;;;;5029878;28;20053;-70
2022/05/10 00:37:49;;;;;;;19.45;9.65;;;13.60;99.90;;;;;;5029516;28;20498;-70
2022/05/10 00:40:55;;;;;;;21.00;9.70;;;13.50;99.90;;;;;;5029816;28;20057;-70
2022/05/10 00:44:13;;;;;;;14.95;9.70;;;13.50;99.90;;;;;;5029804;28;20220;-70
2022/05/10 00:47:27;;;;;;;17.95;9.85;;;13.40;99.90;;;;;;5029636;28;20392;-71
2022/05/10 00:51:17;;;;;;;18.58;9.25;;;13.30;99.90;;;;;;5033609;28;20057;-70
2022/05/10 00:55:13;;;;;;;29.13;9.70;;;13.10;99.90;;;;;;5033429;28;20499;-71
2022/05/10 00:58:35;;;;;;;14.32;9.07;;;13.00;99.90;;;;;;4965390;28;20075;-71
2022/05/10 01:01:43;;;;;;;18.55;7.05;;;13.00;99.90;;;;;;5033304;28;20583;-70
2022/05/10 01:04:52;;;;;;;15.98;7.72;;;12.80;99.90;;;;;;5033442;28;20048;-70
2022/05/10 01:08:08;;;;;;;11.70;7.65;;;12.90;99.90;;;;;;5033151;28;20040;-70
2022/05/10 01:11:25;;;;;;;17.60;7.40;;;12.80;99.90;;;;;;5032910;28;20392;-71
2022/05/10 01:14:39;;;;;;;15.25;7.45;;;12.80;99.90;;;;;;5032843;28;20044;-70
2022/05/10 01:17:46;;;;;;;16.02;6.55;;;12.70;99.90;;;;;;5032686;28;20048;-70
2022/05/10 01:20:56;;;;;;;14.38;7.13;;;12.60;99.90;;;;;;5033144;28;20048;-70
2022/05/10 01:24:06;;;;;;;19.83;8.50;;;12.70;99.90;;;;;;5033155;28;20040;-70
2022/05/10 01:27:18;;;;;;;18.00;10.63;;;12.60;99.90;;;;;;5032525;28;20040;-70
2022/05/10 01:30:24;;;;;;;;;;;12.70;99.90;;;;;;5033036;28;20044;-70
2022/05/10 01:33:54;;;;;;;16.30;10.35;;;12.70;99.90;;;;;;5032758;28;20267;-70
2022/05/10 01:37:04;;;;;;;18.92;9.95;;;12.60;99.90;;;;;;5032855;28;20052;-70
2022/05/10 01:40:20;;;;;;;19.23;11.20;;;12.60;99.90;;;;;;5032557;28;20060;-70
2022/05/10 01:43:39;;;;;;;22.20;11.77;;;12.50;99.90;;;;;;5032735;28;20544;-70
2022/05/10 01:46:49;;;;;;;19.23;12.05;;;12.50;99.90;;;;;;5031955;28;20044;-70
2022/05/10 01:50:12;;;;;;;19.55;11.85;;;12.60;99.90;;;;;;5032579;28;20049;-71
2022/05/10 01:53:20;;;;;;;20.70;13.18;;;12.60;99.90;;;;;;5032440;28;20487;-71
2022/05/10 01:56:26;;;;;;;21.05;13.65;;;12.60;99.90;;;;;;5032212;28;20056;-71
2022/05/10 01:59:30;;;;;;;17.67;11.32;;;12.60;99.90;;;;;;5032161;28;20064;-70
2022/05/10 02:02:38;;;;;;;17.33;12.07;;;12.60;99.90;;;;;;5031983;28;20056;-70
2022/05/10 02:06:14;;;;;;;26.05;12.30;;;12.50;99.90;;;;;;5032294;28;20036;-71
2022/05/10 02:09:41;;;;;;;21.75;12.20;;;12.40;99.90;;;;;;5019791;28;20040;-70
2022/05/10 02:13:13;;;;;;;23.50;12.57;;;12.40;99.90;;;;;;5032081;28;20044;-70
2022/05/10 02:16:42;;;;;;;18.25;11.25;;;12.50;99.90;;;;;;5031953;28;20052;-70
2022/05/10 02:20:09;;;;;;;22.20;12.45;;;12.50;99.90;;;;;;5031595;28;20057;-71
2022/05/10 02:23:22;;;;;;;24.25;12.25;;;12.40;99.90;;;;;;5031631;28;20048;-70
2022/05/10 02:26:34;;;;;;;19.00;11.38;;;12.40;99.90;;;;;;5031459;28;20040;-70
2022/05/10 02:29:42;;;;;;;;;;;12.40;99.90;;;;;;5032225;28;20065;-70
2022/05/10 02:33:08;;;;;;;21.30;10.80;;;12.50;99.90;;;;;;5031961;28;19916;-70
2022/05/10 02:36:11;;;;;;;14.98;9.27;;;12.50;99.90;;;;;;5031294;28;20048;-70
2022/05/10 02:39:16;;;;;;;16.38;10.15;;;12.50;99.90;;;;;;5031857;28;20037;-70
2022/05/10 02:42:22;;;;;;;21.17;11.45;;;12.40;99.90;;;;;;5031929;28;20057;-70
2022/05/10 02:45:26;;;;;;;22.23;8.75;;;12.40;99.90;;;;;;5031469;28;20052;-70
2022/05/10 02:48:34;;;;;;;20.00;9.30;;;12.40;99.90;;;;;;5030592;28;20045;-70
2022/05/10 02:51:37;;;;;;;21.92;11.35;;;12.40;99.90;;;;;;5031066;28;20392;-70
2022/05/10 02:54:41;;;;;;;27.58;14.15;;;12.40;99.90;;;;;;5031177;28;20060;-70
2022/05/10 02:57:48;;;;;;;24.92;12.57;;;12.50;99.90;;;;;;5030883;28;20060;-70
2022/05/10 03:00:58;;;;;;;16.48;10.40;;;12.50;99.90;;;;;;5030709;28;20048;-70
2022/05/10 03:04:03;;;;;;;15.38;9.88;;;12.30;99.90;;;;;;5031080;28;20056;-70
2022/05/10 03:07:09;;;;;;;22.35;12.02;;;12.20;99.90;;;;;;5030847;28;20052;-70
2022/05/10 03:10:13;;;;;;;18.88;10.30;;;12.20;99.90;;;;;;5031091;28;20499;-70
2022/05/10 03:13:19;;;;;;;14.38;9.35;;;12.30;99.90;;;;;;5030862;28;20064;-70
2022/05/10 03:16:24;;;;;;;17.67;11.02;;;12.30;99.90;;;;;;5030109;28;20052;-70
2022/05/10 03:19:28;;;;;;;17.77;10.45;;;12.40;99.90;;;;;;5030913;28;20392;-70
2022/05/10 03:22:33;;;;;;;19.10;11.52;;;12.40;99.90;;;;;;5030801;28;20056;-70
2022/05/10 03:25:37;;;;;;;29.02;14.32;;;12.30;99.90;;;;;;5030799;28;20509;-70
2022/05/10 03:28:41;;;;;;;25.00;14.25;;;12.40;99.90;;;;;;5030478;28;20040;-70
2022/05/10 03:31:46;;;;;;;22.02;13.18;;;12.40;99.90;;;;;;5030440;28;20048;-70
2022/05/10 03:34:54;;;;;;;20.38;12.98;;;12.40;99.90;;;;;;5030383;28;20503;-70
2022/05/10 03:37:58;;;;;;;28.77;15.18;;;12.30;99.90;;;;;;5030395;28;20040;-70
2022/05/10 03:41:03;;;;;;;28.77;14.07;;;12.20;99.90;;;;;;5018021;28;20045;-70
2022/05/10 03:44:08;;;;;;;21.30;13.23;;;12.00;99.90;;;;;;5030357;28;20040;-70
2022/05/10 03:47:12;;;;;;;23.83;13.90;;;11.80;99.90;;;;;;5030406;28;20121;-70
2022/05/10 03:50:19;;;;;;;22.88;13.98;;;11.70;99.90;;;;;;5030601;28;20617;-70
2022/05/10 03:53:24;;;;;;;28.00;15.18;;;11.60;99.90;;;;;;5030567;28;20052;-70
2022/05/10 03:56:28;;;;;;;22.33;13.27;;;11.50;99.90;;;;;;5030221;28;20504;-70
2022/05/10 03:59:34;;;;;;;26.45;14.13;;;11.50;99.90;;;;;;5030368;28;20044;-71
2022/05/10 04:02:38;;;;;;;21.02;13.13;;;11.60;99.90;;;;;;5030134;28;20503;-71
2022/05/10 04:05:43;;;;;;;20.00;12.80;;;11.60;99.90;;;;;;5030476;28;20040;-71
2022/05/10 04:08:47;;;;;;;21.80;12.98;;;11.50;99.90;;;;;;5030436;28;20347;-70
2022/05/10 04:11:51;;;;;;;28.15;13.90;;;11.50;99.90;;;;;;5029984;28;20424;-71
2022/05/10 04:14:56;;;;;;;22.13;13.20;;;11.50;99.90;;;;;;5030214;28;20044;-70
2022/05/10 04:18:00;;;;;;;34.88;15.70;;;11.50;99.90;;;;;;5029953;28;20064;-70
2022/05/10 04:21:04;;;;;;;33.15;16.40;;;11.40;99.90;;;;;;5029548;28;20396;-71
2022/05/10 04:24:09;;;;;;;20.27;13.82;;;11.30;99.90;;;;;;5032882;28;20048;-71
2022/05/10 04:27:13;;;;;;;20.10;12.10;;;11.30;99.90;;;;;;5033561;28;20044;-70
2022/05/10 04:30:18;;;;;;;21.80;11.98;;;11.40;99.90;;;;;;5033966;28;20048;-70
2022/05/10 04:33:22;;;;;;;21.88;12.40;;;11.50;99.90;;;;;;5033874;28;20048;-70
2022/05/10 04:36:26;;;;;;;23.73;14.93;;;11.50;99.90;;;;;;5033681;28;20052;-71
2022/05/10 04:41:24;;;;;;;22.65;14.25;;;11.60;99.90;;;;;;5033738;28;20049;-70
2022/05/10 04:42:54;;;;;;;25.27;15.25;;;11.60;99.90;;;;;;5033708;28;20113;-70
2022/05/10 04:45:58;;;;;;;26.88;14.05;;;11.70;99.90;;;;;;5033827;28;20456;-70
2022/05/10 04:49:03;;;;;;;24.98;12.07;;;11.90;99.90;;;;;;5033913;28;20491;-71
2022/05/10 04:52:10;;;;;;;21.00;11.82;;;12.60;99.90;;;;;;5033365;28;20503;-71
2022/05/10 04:55:14;;;;;;;19.42;10.90;;;14.40;99.90;;;;;;5033899;28;20252;-70
2022/05/10 04:58:18;;;;;;;14.65;10.07;;;15.80;99.90;;;;;;5033018;28;20052;-71
2022/05/10 05:01:26;;;;;;;19.17;10.32;;;16.70;99.90;;;;;;5031025;28;20412;-71
2022/05/10 05:04:30;;;;;;;18.23;9.82;;;17.50;99.90;;;;;;5032715;28;20044;-71
2022/05/10 05:07:34;;;;;;;22.30;10.48;;;18.70;99.90;;;;;;5020523;28;20041;-71
2022/05/10 05:10:38;;;;;;;16.95;9.30;;;19.70;99.90;;;;;;5032924;28;20510;-71
2022/05/10 05:13:42;;;;;;;14.65;8.93;;;20.60;99.90;;;;;;5033002;28;20048;-71
2022/05/10 05:16:46;;;;;;;16.00;8.90;;;20.70;99.90;;;;;;5032638;28;20134;-71
2022/05/10 05:19:50;;;;;;;15.27;8.93;;;20.30;99.90;;;;;;5032954;28;20057;-71
2022/05/10 05:22:54;;;;;;;12.35;8.43;;;20.80;99.90;;;;;;5032989;28;20048;-71
2022/05/10 05:25:58;;;;;;;13.82;8.55;;;21.80;99.90;;;;;;5032486;28;20041;-71
2022/05/10 05:29:02;;;;;;;16.15;8.63;;;22.10;99.90;;;;;;5032773;28;20487;-71
2022/05/10 05:32:10;;;;;;;18.83;8.68;;;22.30;99.90;;;;;;5032315;28;20404;-70
2022/05/10 05:35:14;;;;;;;12.27;8.02;;;23.30;99.90;;;;;;5032403;28;20061;-71
2022/05/10 05:38:18;;;;;;;15.13;8.05;;;22.10;99.90;;;;;;5031882;28;20084;-71
2022/05/10 05:41:23;;;;;;;12.45;7.32;;;22.30;99.90;;;;;;5031865;28;20082;-71
2022/05/10 05:44:27;;;;;;;13.07;7.55;;;23.80;99.90;;;;;;5032517;28;20048;-71
2022/05/10 05:47:31;;;;;;;17.42;7.53;;;24.70;99.90;;;;;;5031838;28;20045;-71
2022/05/10 05:50:35;;;;;;;10.60;7.00;;;25.10;99.90;;;;;;5032228;28;20060;-71
2022/05/10 05:53:39;;;;;;;13.57;7.40;;;25.30;99.90;;;;;;5031903;28;20396;-72
2022/05/10 05:56:43;;;;;;;12.60;7.57;;;25.70;99.80;;;;;;5031669;28;20060;-71
2022/05/10 05:59:47;;;;;;;13.65;7.20;;;26.10;99.40;;;;;;5031737;28;20122;-71
2022/05/10 06:02:51;;;;;;;12.13;7.28;;;26.10;99.00;;;;;;5031652;28;20064;-72
2022/05/10 06:05:55;;;;;;;12.52;8.02;;;25.70;98.70;;;;;;5032029;28;20117;-71
2022/05/10 06:08:59;;;;;;;16.55;9.40;;;23.50;99.90;;;;;;5031777;28;20053;-72
2022/05/10 06:12:04;;;;;;;15.25;8.43;;;24.60;99.90;;;;;;5031630;28;20057;-72
2022/05/10 06:15:13;;;;;;;13.35;7.72;;;24.30;99.60;;;;;;5031562;28;20052;-72
2022/05/10 06:18:17;;;;;;;11.88;8.25;;;23.70;99.90;;;;;;5031233;28;20044;-71
2022/05/10 06:21:21;;;;;;;13.50;7.30;;;24.60;99.90;;;;;;5041189;28;20040;-72
2022/05/10 06:24:25;;;;;;;16.58;8.73;;;25.70;99.20;;;;;;5046450;28;20044;-72
2022/05/10 06:27:29;;;;;;;11.43;6.38;;;26.50;98.40;;;;;;5046593;28;20043;-71
2022/05/10 06:30:33;;;;;;;13.38;6.82;;;26.60;97.00;;;;;;5050733;28;20056;-72
2022/05/10 06:33:37;;;;;;;15.73;7.57;;;26.50;97.40;;;;;;5050517;28;20032;-72
2022/05/10 06:36:43;;;;;;;13.38;7.00;;;26.50;97.30;;;;;;5049732;28;20388;-72
2022/05/10 06:39:47;;;;;;;14.68;7.22;;;25.70;97.10;;;;;;5050265;28;20063;-72
2022/05/10 06:42:52;;;;;;;10.95;6.18;;;24.10;98.30;;;;;;5049829;28;20550;-70
2022/05/10 06:46:08;;;;;;;12.60;7.03;;;23.80;99.10;;;;;;5047889;28;20056;-72
2022/05/10 06:49:12;;;;;;;13.97;6.67;;;24.90;98.70;;;;;;5044826;28;20392;-72
2022/05/10 06:52:17;;;;;;;17.05;6.60;;;24.20;98.60;;;;;;5048829;28;20048;-70
2022/05/10 06:55:23;;;;;;;12.95;6.45;;;24.60;98.10;;;;;;5035192;28;20048;-72
2022/05/10 06:58:28;;;;;;;10.55;6.72;;;23.80;98.80;;;;;;5051875;28;20043;-72
2022/05/10 07:01:32;;;;;;;14.05;7.20;;;22.40;99.60;;;;;;5051010;28;20052;-72
2022/05/10 07:04:36;;;;;;;11.90;6.18;;;21.90;99.90;;;;;;5049738;28;20052;-72
2022/05/10 07:07:40;;;;;;;9.82;5.65;;;23.60;99.90;;;;;;5048083;28;20062;-72
2022/05/10 07:10:46;;;;;;;13.00;6.50;;;24.00;99.30;;;;;;5051829;28;20052;-72
2022/05/10 07:13:49;;;;;;;10.63;6.13;;;24.30;98.90;;;;;;5049881;28;20087;-72
2022/05/10 07:16:53;;;;;;;12.50;6.10;;;24.50;98.30;;;;;;5050937;28;20040;-72
2022/05/10 07:19:57;;;;;;;14.73;6.05;;;24.90;98.20;;;;;;5050664;28;20056;-72
2022/05/10 07:23:02;;;;;;;12.70;6.47;;;26.10;97.70;;;;;;5051489;28;20047;-72
2022/05/10 07:26:06;;;;;;;13.32;6.75;;;26.60;96.90;;;;;;5048540;28;20053;-72
2022/05/10 07:29:10;;;;;;;12.77;7.00;;;25.20;96.60;;;;;;5050529;28;20048;-72
2022/05/10 07:32:14;;;;;;;15.07;7.15;;;26.60;96.60;;;;;;5050805;28;20043;-72
2022/05/10 07:38:44;;;;;;;11.68;7.88;;;27.50;94.60;;;;;;5051399;28;20036;-72
2022/05/10 07:41:53;;;;;;;15.57;8.85;;;27.50;95.30;;;;;;5050313;28;20047;-72
2022/05/10 07:44:58;;;;;;;16.40;9.32;;;28.40;94.30;;;;;;5050762;28;20059;-71
2022/05/10 07:48:04;;;;;;;18.08;9.57;;;28.60;94.00;;;;;;5034749;28;20117;-72
2022/05/10 07:51:10;;;;;;;18.00;10.07;;;27.10;94.50;;;;;;5050953;28;20044;-71
2022/05/10 07:54:14;;;;;;;18.70;10.65;;;27.20;94.50;;;;;;5050126;28;20052;-72
2022/05/10 07:57:18;;;;;;;15.95;9.70;;;29.30;93.30;;;;;;5048247;28;20052;-70
2022/05/10 08:00:22;;;;;;;15.77;9.50;;;30.30;92.70;;;;;;5031200;28;20053;-73
2022/05/10 08:03:27;;;;;;;14.70;8.45;;;31.60;92.20;;;;;;5033768;28;20246;-70
2022/05/10 08:06:31;;;;;;;16.60;8.65;;;33.10;90.80;;;;;;5044853;28;20395;-73
2022/05/10 08:09:36;;;;;;;14.68;8.05;;;31.20;90.60;;;;;;5043573;28;20043;-72
2022/05/10 08:12:39;;;;;;;16.92;8.48;;;28.40;91.40;;;;;;5046446;28;20372;-72
2022/05/10 08:15:45;;;;;;;19.35;8.30;;;29.90;92.30;;;;;;5047358;28;20043;-72
2022/05/10 08:18:49;;;;;;;19.35;7.13;;;29.10;92.20;;;;;;5049454;28;20051;-70
2022/05/10 08:21:56;;;;;;;17.10;6.55;;;31.40;91.40;;;;;;5043493;28;20056;-70
2022/05/10 08:25:01;;;;;;;10.30;5.38;;;30.70;90.30;;;;;;5055282;28;20040;-71
2022/05/10 08:28:06;;;;;;;11.20;5.95;;;32.40;90.50;;;;;;5052343;28;20048;-72
2022/05/10 08:31:09;;;;;;;12.50;5.43;;;31.30;87.30;;;;;;5049721;28;20059;-73
2022/05/10 08:34:13;;;;;;;7.57;4.60;;;30.80;90.00;;;;;;5043232;28;20515;-72
2022/05/10 08:37:18;;;;;;;8.48;4.32;;;32.10;87.90;;;;;;5044095;28;20060;-73
2022/05/10 08:40:32;;;;;;;11.27;4.57;;;31.30;87.30;;;;;;5039895;28;20519;-72
2022/05/10 08:43:39;;;;;;;9.48;4.47;;;32.10;87.80;;;;;;5042953;28;20526;-71
2022/05/10 08:46:46;;;;;;;10.65;4.00;;;33.40;86.40;;;;;;5041135;28;20412;-71
2022/05/10 08:49:50;;;;;;;9.77;3.88;;;33.00;82.40;;;;;;5040906;28;20048;-73
2022/05/10 08:52:54;;;;;;;10.48;4.50;;;33.60;81.90;;;;;;5043803;28;20396;-73
2022/05/10 08:56:24;;;;;;;10.68;4.25;;;34.80;82.40;;;;;;5044886;28;20829;-73
2022/05/10 08:59:40;;;;;;;12.07;4.07;;;35.80;78.30;;;;;;5043647;28;21509;-73
2022/05/10 09:02:50;;;;;;;12.73;4.63;;;37.30;76.80;;;;;;5044157;28;20044;-73
2022/05/10 09:06:03;;;;;;;10.43;4.03;;;34.70;75.60;;;;;;5045743;28;20384;-72
2022/05/10 09:09:32;;;;;;;13.85;3.38;;;35.40;76.60;;;;;;5042176;28;20103;-74
2022/05/10 09:12:49;;;;;;;9.38;3.42;;;34.50;76.40;;;;;;5048990;28;20044;-73
2022/05/10 09:16:05;;;;;;;6.50;3.75;;;36.50;73.90;;;;;;5051218;28;20052;-72
2022/05/10 09:19:11;;;;;;;13.30;4.68;;;36.60;73.40;;;;;;5054857;28;20051;-72
2022/05/10 09:22:19;;;;;;;7.57;3.40;;;38.10;73.50;;;;;;5050529;28;20451;-73
2022/05/10 09:25:38;;;;;;;11.95;4.30;;;39.10;72.00;;;;;;5051834;28;20035;-72
2022/05/10 09:29:07;;;;;;;11.85;3.60;;;38.20;69.60;;;;;;5050372;28;20494;-71
2022/05/10 09:35:51;;;;;;;10.40;3.53;;;38.40;66.80;;;;;;5057780;28;20044;-72
2022/05/10 09:39:12;;;;;;;13.57;3.65;;;39.10;65.80;;;;;;5047204;28;20052;-72
2022/05/10 09:42:30;;;;;;;9.52;3.17;;;38.60;66.00;;;;;;5049060;28;20517;-73
2022/05/10 09:45:34;;;;;;;12.65;3.40;;;37.10;60.40;;;;;;5048222;28;20039;-72
2022/05/10 09:48:42;;;;;;;9.00;2.88;;;39.00;63.80;;;;;;5060454;28;20043;-73
2022/05/10 09:51:56;;;;;;;10.35;2.88;;;40.90;62.10;;;;;;5041431;28;20040;-73
2022/05/10 09:55:07;;;;;;;14.38;2.35;;;39.60;59.30;;;;;;5051931;28;20053;-73
2022/05/10 09:58:17;;;;;;;9.55;3.00;;;38.40;56.70;;;;;;5055662;28;20495;-72
2022/05/10 10:01:47;;;;;;;8.50;2.22;;;37.60;58.40;;;;;;5042308;28;20040;-73
2022/05/10 10:04:50;;;;;;;11.48;3.05;;;38.70;57.30;;;;;;5041166;28;20047;-71
2022/05/10 10:07:57;;;;;;;6.55;2.17;;;34.70;56.60;;;;;;5057150;28;20039;-71
2022/05/10 10:11:01;;;;;;;10.73;2.63;;;36.00;57.80;;;;;;5055431;28;20040;-72
2022/05/10 10:14:08;;;;;;;8.13;2.40;;;38.90;57.90;;;;;;5057050;28;20053;-72
2022/05/10 10:17:24;;;;;;;14.43;3.00;;;37.70;57.90;;;;;;5043216;28;20036;-72
2022/05/10 10:20:33;;;;;;;10.98;3.00;;;38.60;58.60;;;;;;5048603;28;20055;-73
2022/05/10 10:23:41;;;;;;;10.77;2.77;;;40.60;57.40;;;;;;5045324;28;20071;-73
2022/05/10 10:26:51;;;;;;;8.93;2.72;;;40.90;55.10;;;;;;5050592;28;20419;-72
2022/05/10 10:30:17;;;;;;;12.13;2.75;;;42.00;54.70;;;;;;5034057;28;20036;-71
2022/05/10 10:33:32;;;;;;;12.95;2.53;;;42.80;54.70;;;;;;5049767;28;20047;-73
2022/05/10 10:37:04;;;;;;;8.98;2.60;;;42.60;55.40;;;;;;5054922;28;20047;-72
2022/05/10 10:40:24;;;;;;;10.90;3.08;;;39.70;56.90;;;;;;5035711;28;20057;-73
2022/05/10 10:44:04;;;;;;;10.40;3.60;;;41.30;56.30;;;;;;5047717;28;20506;-72
2022/05/10 10:47:11;;;;;;;8.63;2.92;;;40.60;55.10;;;;;;5033463;28;20036;-74
2022/05/10 10:50:38;;;;;;;8.68;2.90;;;41.40;54.40;;;;;;5046669;28;20056;-72
2022/05/10 10:53:44;;;;;;;7.72;2.70;;;42.30;54.80;;;;;;5057311;28;20490;-73
2022/05/10 10:57:17;;;;;;;7.20;2.72;;;42.30;55.50;;;;;;5045263;28;20048;-73
2022/05/10 11:00:51;;;;;;;11.85;2.90;;;40.70;54.00;;;;;;5046259;28;20043;-72
2022/05/10 11:04:14;;;;;;;9.43;3.10;;;41.10;53.80;;;;;;5038770;28;20071;-73
2022/05/10 11:07:43;;;;;;;10.15;3.08;;;38.40;55.10;;;;;;5044431;28;20048;-73
2022/05/10 11:11:24;;;;;;;9.98;3.05;;;38.40;55.40;;;;;;5042993;28;20044;-72
2022/05/10 11:14:59;;;;;;;16.75;3.08;;;35.30;57.00;;;;;;5043417;28;20052;-72
2022/05/10 11:18:22;;;;;;;13.80;3.05;;;38.30;58.00;;;;;;5055828;28;20562;-73
2022/05/10 11:21:38;;;;;;;22.17;3.78;;;40.70;57.60;;;;;;5050991;28;20040;-76
2022/05/10 11:24:52;;;;;;;9.43;2.70;;;39.80;57.40;;;;;;5045882;28;20044;-72
2022/05/10 11:28:40;;;;;;;12.50;3.50;;;38.30;53.20;;;;;;5052482;28;20043;-73
2022/05/10 11:32:00;;;;;;;12.23;3.28;;;32.90;57.80;;;;;;5044516;28;20044;-72
2022/05/10 11:35:46;;;;;;;9.75;2.83;;;35.10;58.90;;;;;;5049521;28;20048;-72
2022/05/10 11:39:03;;;;;;;8.10;2.90;;;38.20;58.80;;;;;;5047262;28;20499;-73
2022/05/10 11:42:22;;;;;;;10.52;3.00;;;39.90;57.10;;;;;;5049647;28;20044;-72
2022/05/10 11:45:27;;;;;;;11.63;3.15;;;40.80;56.20;;;;;;5048856;28;20047;-73
2022/05/10 11:48:34;;;;;;;7.60;2.90;;;40.40;56.10;;;;;;5046053;28;20044;-71
2022/05/10 11:51:48;;;;;;;12.10;3.20;;;38.90;55.90;;;;;;5041116;28;20041;-73
2022/05/10 11:55:00;;;;;;;11.02;3.10;;;38.60;56.40;;;;;;5043214;28;20048;-72
2022/05/10 11:58:08;;;;;;;10.82;3.05;;;36.80;57.60;;;;;;5037813;28;20043;-73
2022/05/10 12:01:34;;;;;;;9.13;3.25;;;36.00;60.00;;;;;;5040919;28;20051;-72
2022/05/10 12:04:43;;;;;;;10.13;3.75;;;37.40;58.40;;;;;;5034733;28;20044;-71
2022/05/10 12:07:50;;;;;;;9.65;3.22;;;36.40;58.10;;;;;;5042941;28;20036;-72
2022/05/10 12:10:54;;;;;;;11.63;3.42;;;37.00;58.90;;;;;;5047360;28;20044;-72
2022/05/10 12:21:28;;;;;;;13.77;3.42;;;38.30;56.90;;;;;;5037335;28;20048;-70
2022/05/10 12:24:44;;;;;;;15.48;4.45;;;38.00;58.10;;;;;;5042504;28;20041;-70
2022/05/10 12:28:00;;;;;;;11.98;3.80;;;32.50;58.90;;;;;;5043838;28;20044;-70
2022/05/10 12:31:37;;;;;;;12.63;3.55;;;32.30;59.10;;;;;;5049244;28;20060;-69
2022/05/10 12:34:46;;;;;;;13.80;3.72;;;31.60;61.00;;;;;;5013887;28;20032;-70
2022/05/10 12:38:00;;;;;;;12.90;3.67;;;32.70;62.20;;;;;;5045718;28;20376;-70
2022/05/10 12:41:19;;;;;;;13.73;3.85;;;31.60;61.60;;;;;;5043269;28;20052;-71
2022/05/10 12:44:58;;;;;;;13.90;3.75;;;30.00;60.80;;;;;;5047555;28;20044;-73
2022/05/10 12:48:25;;;;;;;10.88;4.03;;;30.80;63.00;;;;;;5036370;28;20044;-74
2022/05/10 12:51:47;;;;;;;12.10;4.00;;;31.70;64.90;;;;;;5037178;28;20032;-72
2022/05/10 12:55:03;;;;;;;19.67;5.25;;;31.80;62.60;;;;;;5035347;28;20048;-72
2022/05/10 12:58:17;;;;;;;11.15;3.67;;;29.90;62.40;;;;;;5031044;28;20052;-73
2022/05/10 13:01:25;;;;;;;12.25;4.15;;;31.60;63.20;;;;;;5046427;28;20048;-73
2022/05/10 13:04:41;;;;;;;12.45;4.00;;;33.80;61.20;;;;;;5049249;28;20048;-74
2022/05/10 13:08:18;;;;;;;10.90;4.00;;;34.60;62.80;;;;;;5044962;28;20044;-72
2022/05/10 13:11:31;;;;;;;11.45;3.92;;;33.00;59.60;;;;;;5040499;28;20495;-73
2022/05/10 13:14:41;;;;;;;11.43;3.83;;;31.90;61.00;;;;;;5044276;28;20036;-73
2022/05/10 13:17:51;;;;;;;9.82;3.00;;;31.60;61.10;;;;;;5049615;28;20036;-73
2022/05/10 13:20:58;;;;;;;14.77;3.67;;;30.00;62.50;;;;;;5047177;28;20360;-72
2022/05/10 13:24:14;;;;;;;16.25;4.32;;;29.10;64.30;;;;;;5061490;28;20044;-74
2022/05/10 13:27:26;;;;;;;13.55;4.88;;;28.60;64.30;;;;;;5035531;28;20056;-74
2022/05/10 13:30:31;;;;;;;13.40;4.40;;;28.70;63.80;;;;;;5054861;28;20044;-74
2022/05/10 13:33:37;;;;;;;15.60;4.55;;;29.30;64.50;;;;;;5055320;28;20071;-73
2022/05/10 13:36:50;;;;;;;21.90;5.30;;;29.70;67.20;;;;;;5049433;28;20109;-73
2022/05/10 13:39:55;;;;;;;20.80;5.30;;;27.80;83.90;;;;;;5051191;28;20043;-73
2022/05/10 13:43:42;;;;;;;15.43;5.55;;;26.70;82.10;;;;;;5037034;28;20048;-72
2022/05/10 13:47:03;;;;;;;11.93;4.40;;;26.60;80.30;;;;;;5051932;28;20064;-73
2022/05/10 13:50:16;;;;;;;19.35;4.32;;;27.20;80.20;;;;;;5040373;28;20058;-72
2022/05/10 13:53:38;;;;;;;7.50;3.55;;;27.90;77.10;;;;;;5039078;28;20125;-73
2022/05/10 13:56:42;;;;;;;12.73;3.97;;;28.50;77.90;;;;;;5050476;28;20035;-73
2022/05/10 13:59:49;;;;;;;16.38;4.40;;;28.90;74.60;;;;;;5045674;28;20413;-73
2022/05/10 14:02:58;;;;;;;10.80;3.65;;;29.60;76.00;;;;;;5035343;28;20043;-72
2022/05/10 14:06:14;;;;;;;10.63;3.97;;;30.40;71.90;;;;;;5051642;28;20036;-74
2022/05/10 14:09:25;;;;;;;12.18;4.05;;;30.60;73.70;;;;;;5051306;28;20052;-74
2022/05/10 14:12:34;;;;;;;;;;;31.00;70.90;;;;;;5052349;28;20044;-72
2022/05/10 14:15:44;;;;;;;9.23;3.63;;;31.30;70.50;;;;;;5048893;28;20360;-74
2022/05/10 14:18:51;;;;;;;9.38;4.05;;;32.00;68.20;;;;;;5045909;28;20068;-73
2022/05/10 14:21:58;;;;;;;13.38;3.40;;;32.60;66.20;;;;;;5033479;28;20396;-73
2022/05/10 14:25:03;;;;;;;9.13;3.30;;;32.50;63.70;;;;;;5047018;28;20052;-72
2022/05/10 14:28:21;;;;;;;8.38;3.13;;;32.70;64.60;;;;;;5048226;28;20063;-73
2022/05/10 14:31:34;;;;;;;11.23;4.00;;;33.00;64.50;;;;;;5047858;28;20044;-72
2022/05/10 14:34:56;;;;;;;10.93;4.13;;;33.10;63.40;;;;;;5049157;28;20044;-73
2022/05/10 14:38:11;;;;;;;12.13;3.45;;;32.50;62.20;;;;;;5046116;28;20045;-72
2022/05/10 14:41:37;;;;;;;11.30;3.42;;;32.40;64.30;;;;;;5042445;28;20591;-73
2022/05/10 14:44:43;;;;;;;12.13;4.32;;;32.30;63.60;;;;;;5051687;28;20056;-73
2022/05/10 14:47:47;;;;;;;8.35;3.95;;;32.00;64.30;;;;;;5049085;28;20394;-74
2022/05/10 14:50:55;;;;;;;13.25;3.70;;;32.20;66.60;;;;;;5048946;28;20036;-73
2022/05/10 14:53:59;;;;;;;11.88;4.45;;;30.80;66.20;;;;;;5049341;28;20498;-73
2022/05/10 14:57:04;;;;;;;12.93;4.47;;;30.90;67.70;;;;;;5035563;28;20270;-73
2022/05/10 15:00:38;;;;;;;9.30;3.10;;;30.10;68.50;;;;;;5049598;28;20040;-73
2022/05/10 15:04:07;;;;;;;9.40;3.85;;;29.90;67.50;;;;;;5047734;28;20564;-73
2022/05/10 15:07:11;;;;;;;14.35;3.38;;;28.90;69.00;;;;;;5052836;28;20040;-73
2022/05/10 15:10:18;;;;;;;9.35;3.60;;;28.60;70.40;;;;;;5040818;28;20063;-74
2022/05/10 15:13:22;;;;;;;9.48;4.07;;;28.10;70.60;;;;;;5031553;28;20044;-74
2022/05/10 15:16:26;;;;;;;9.75;3.38;;;28.00;70.50;;;;;;5031071;28;20060;-73
2022/05/10 15:19:30;;;;;;;9.20;2.95;;;27.80;69.40;;;;;;5030357;28;20052;-73
2022/05/10 15:22:34;;;;;;;10.68;3.50;;;27.40;70.10;;;;;;5030822;28;20048;-72
2022/05/10 15:25:40;;;;;;;11.88;3.20;;;27.50;71.20;;;;;;5030439;28;20040;-73
2022/05/10 15:28:47;;;;;;;12.13;3.10;;;27.50;71.90;;;;;;5030373;28;20060;-73
2022/05/10 15:31:51;;;;;;;9.98;3.90;;;27.50;71.20;;;;;;5030404;28;20044;-73
2022/05/10 15:34:55;;;;;;;12.50;3.45;;;27.40;71.50;;;;;;5030302;28;20494;-72
2022/05/10 15:37:59;;;;;;;9.15;3.95;;;27.30;70.90;;;;;;5030133;28;20045;-72
2022/05/10 15:41:03;;;;;;;7.95;3.83;;;27.30;71.50;;;;;;5030135;28;20415;-72
2022/05/10 15:44:07;;;;;;;14.40;4.10;;;27.50;70.60;;;;;;5029972;28;20562;-72
2022/05/10 15:47:12;;;;;;;14.18;3.88;;;27.80;69.20;;;;;;5029826;28;20068;-72
2022/05/10 15:50:23;;;;;;;13.65;3.95;;;27.80;71.60;;;;;;5030398;28;20048;-73
2022/05/10 15:53:27;;;;;;;11.13;4.30;;;27.60;71.80;;;;;;5030339;28;20321;-72
2022/05/10 15:56:31;;;;;;;14.02;4.07;;;27.40;72.50;;;;;;5028875;28;20052;-72
2022/05/10 15:59:36;;;;;;;14.23;3.90;;;27.50;72.00;;;;;;5030193;28;20503;-72
2022/05/10 16:02:41;;;;;;;13.05;4.03;;;27.50;72.80;;;;;;5030295;28;20045;-72
2022/05/10 16:05:50;;;;;;;13.85;3.58;;;27.50;73.40;;;;;;5030273;28;20057;-72
2022/05/10 16:08:54;;;;;;;10.30;3.83;;;27.60;75.00;;;;;;5030346;28;20384;-72
2022/05/10 16:11:59;;;;;;;12.05;3.42;;;27.60;76.70;;;;;;5030305;28;20044;-72
2022/05/10 16:15:03;;;;;;;10.80;3.78;;;27.70;77.70;;;;;;5029859;28;20049;-72
2022/05/10 16:18:13;;;;;;;9.75;4.00;;;27.70;78.40;;;;;;5030540;28;20048;-72
2022/05/10 16:21:18;;;;;;;12.15;4.32;;;27.90;76.80;;;;;;5034233;28;20045;-72
2022/05/10 16:24:23;;;;;;;16.13;4.43;;;28.10;76.10;;;;;;5034551;28;20053;-72
2022/05/10 16:30:50;;;;;;;18.55;4.75;;;28.50;73.40;;;;;;5033855;28;20049;-72
2022/05/10 16:33:55;;;;;;;9.07;3.97;;;28.50;73.60;;;;;;5034268;28;20044;-72
2022/05/10 16:36:59;;;;;;;11.90;4.55;;;28.50;73.90;;;;;;5033180;28;20048;-72